createdAt,value
2018-12-08T00:02:07.227Z,9.60
2018-12-08T00:04:35.172Z,10.00
2018-12-08T00:07:03.337Z,10.00
2018-12-08T00:09:31.397Z,9.80
2018-12-08T00:11:59.235Z,9.90
2018-12-08T00:14:30.467Z,10.10
2018-12-08T00:16:58.283Z,10.00
2018-12-08T00:19:28.392Z,9.90
2018-12-08T00:21:56.195Z,9.80
2018-12-08T00:24:23.998Z,9.60
2018-12-08T00:26:52.079Z,9.70
2018-12-08T00:29:19.999Z,9.70
2018-12-08T00:31:47.872Z,9.70
2018-12-08T00:34:15.739Z,9.50
2018-12-08T00:36:44.139Z,9.60
2018-12-08T00:39:11.986Z,9.50
2018-12-08T00:41:40.972Z,9.70
2018-12-08T00:44:08.770Z,9.90
2018-12-08T00:46:36.591Z,10.00
2018-12-08T00:49:04.483Z,9.80
2018-12-08T00:51:32.299Z,9.80
2018-12-08T00:54:05.588Z,9.70
2018-12-08T00:56:33.424Z,9.40
2018-12-08T00:59:01.243Z,9.20
2018-12-08T01:01:29.145Z,9.40
2018-12-08T01:03:57.037Z,9.50
2018-12-08T01:06:24.880Z,9.40
2018-12-08T01:08:52.657Z,9.40
2018-12-08T01:11:20.459Z,9.30
2018-12-08T01:13:48.300Z,9.20
2018-12-08T01:16:16.400Z,9.20
2018-12-08T01:18:44.247Z,9.00
2018-12-08T01:21:12.067Z,9.00
2018-12-08T01:23:39.969Z,8.90
2018-12-08T01:26:07.772Z,9.00
2018-12-08T01:28:35.622Z,9.10
2018-12-08T01:31:03.424Z,9.40
2018-12-08T01:33:31.232Z,9.30
2018-12-08T01:35:59.084Z,9.10
2018-12-08T01:38:26.957Z,8.90
2018-12-08T01:40:55.007Z,9.10
2018-12-08T01:43:22.852Z,9.00
2018-12-08T01:45:51.238Z,8.80
2018-12-08T01:48:19.110Z,8.80
2018-12-08T01:50:47.079Z,8.70
2018-12-08T01:53:15.039Z,8.80
2018-12-08T01:55:43.395Z,9.20
2018-12-08T01:58:11.317Z,9.30
2018-12-08T02:00:39.394Z,9.50
2018-12-08T02:03:07.607Z,9.30
2018-12-08T02:05:35.487Z,9.30
2018-12-08T02:08:03.343Z,9.20
2018-12-08T02:10:31.285Z,9.20
2018-12-08T02:12:59.196Z,9.00
2018-12-08T02:15:27.143Z,9.00
2018-12-08T02:17:55.045Z,8.80
2018-12-08T02:20:22.891Z,8.60
2018-12-08T02:22:50.820Z,8.70
2018-12-08T02:25:18.815Z,8.50
2018-12-08T02:27:46.709Z,8.30
2018-12-08T02:30:14.718Z,8.30
2018-12-08T02:32:42.579Z,8.30
2018-12-08T02:35:10.531Z,8.30
2018-12-08T02:37:38.578Z,8.20
2018-12-08T02:40:08.080Z,8.20
2018-12-08T02:42:35.969Z,8.10
2018-12-08T02:45:04.093Z,8.30
2018-12-08T02:47:32.203Z,8.30
2018-12-08T02:50:00.199Z,8.30
2018-12-08T02:52:28.186Z,8.30
2018-12-08T02:54:56.095Z,8.10
2018-12-08T02:57:24.024Z,8.00
2018-12-08T02:59:51.969Z,8.00
2018-12-08T03:02:19.869Z,7.90
2018-12-08T03:04:47.771Z,7.90
2018-12-08T03:07:15.720Z,7.90
2018-12-08T03:09:43.782Z,7.80
2018-12-08T03:12:11.660Z,7.70
2018-12-08T03:14:39.655Z,7.60
2018-12-08T03:17:07.465Z,7.60
2018-12-08T03:19:35.261Z,7.60
2018-12-08T03:22:03.147Z,7.50
2018-12-08T03:24:31.039Z,7.70
2018-12-08T03:26:59.031Z,7.60
2018-12-08T03:29:27.385Z,7.50
2018-12-08T03:31:55.180Z,7.50
2018-12-08T03:34:22.982Z,7.50
2018-12-08T03:36:51.001Z,7.40
2018-12-08T03:39:18.863Z,7.40
2018-12-08T03:41:46.639Z,7.30
2018-12-08T03:44:14.435Z,7.30
2018-12-08T03:46:42.231Z,7.20
2018-12-08T03:49:10.064Z,7.20
2018-12-08T03:51:38.318Z,7.30
2018-12-08T03:54:06.109Z,7.30
2018-12-08T03:56:34.008Z,7.30
2018-12-08T03:59:01.864Z,7.50
2018-12-08T04:01:29.907Z,7.80
2018-12-08T04:03:58.077Z,8.30
2018-12-08T04:06:26.007Z,8.30
2018-12-08T04:08:53.903Z,8.30
2018-12-08T04:11:21.837Z,8.40
2018-12-08T04:13:49.811Z,8.30
2018-12-08T04:16:17.746Z,8.30
2018-12-08T04:18:46.945Z,8.20
2018-12-08T04:21:14.753Z,8.10
2018-12-08T04:23:43.470Z,8.00
2018-12-08T04:26:11.289Z,8.00
2018-12-08T04:28:39.351Z,8.00
2018-12-08T04:31:07.396Z,7.90
2018-12-08T04:33:35.239Z,7.90
2018-12-08T04:36:03.119Z,8.10
2018-12-08T04:38:31.020Z,8.30
2018-12-08T04:40:58.931Z,8.40
2018-12-08T04:43:26.747Z,8.50
2018-12-08T04:45:54.604Z,8.80
2018-12-08T04:48:22.490Z,8.70
2018-12-08T04:50:50.681Z,8.60
2018-12-08T04:53:18.500Z,8.50
2018-12-08T04:55:46.274Z,8.60
2018-12-08T04:58:14.149Z,8.70
2018-12-08T05:00:41.902Z,8.70
2018-12-08T05:03:09.730Z,8.60
2018-12-08T05:05:37.557Z,8.50
2018-12-08T05:08:05.402Z,8.70
2018-12-08T05:10:33.266Z,8.60
2018-12-08T05:13:01.068Z,8.50
2018-12-08T05:15:29.017Z,8.50
2018-12-08T05:17:56.837Z,8.40
2018-12-08T05:20:25.813Z,8.30
2018-12-08T05:22:53.633Z,8.20
2018-12-08T05:25:21.535Z,8.20
2018-12-08T05:27:50.096Z,8.10
2018-12-08T05:30:18.059Z,8.10
2018-12-08T05:32:45.950Z,8.10
2018-12-08T05:35:13.759Z,8.10
2018-12-08T05:37:41.731Z,8.10
2018-12-08T05:40:09.546Z,8.20
2018-12-08T05:42:37.377Z,8.40
2018-12-08T05:45:05.344Z,8.50
2018-12-08T05:47:33.190Z,8.40
2018-12-08T05:50:01.133Z,8.40
2018-12-08T05:52:28.939Z,8.70
2018-12-08T05:54:56.955Z,8.60
2018-12-08T05:57:24.759Z,8.80
2018-12-08T05:59:52.575Z,8.90
2018-12-08T06:02:20.369Z,8.90
2018-12-08T06:04:48.156Z,9.00
2018-12-08T06:07:15.971Z,9.00
2018-12-08T06:09:43.829Z,8.80
2018-12-08T06:12:11.680Z,8.90
2018-12-08T06:14:40.141Z,8.70
2018-12-08T06:17:08.231Z,8.80
2018-12-08T06:19:36.295Z,8.70
2018-12-08T06:22:04.134Z,8.60
2018-12-08T06:24:32.030Z,8.40
2018-12-08T06:27:13.843Z,8.40
2018-12-08T06:29:41.684Z,8.80
2018-12-08T06:32:09.519Z,8.60
2018-12-08T06:34:37.347Z,8.70
2018-12-08T06:37:05.303Z,8.90
2018-12-08T06:39:33.208Z,8.90
2018-12-08T06:42:01.250Z,9.00
2018-12-08T06:44:29.075Z,9.10
2018-12-08T06:46:56.917Z,9.00
2018-12-08T06:49:24.735Z,8.80
2018-12-08T06:51:52.598Z,8.70
2018-12-08T06:54:20.463Z,8.60
2018-12-08T06:56:48.356Z,8.50
2018-12-08T06:59:16.290Z,8.80
2018-12-08T07:01:44.332Z,8.60
2018-12-08T07:04:12.986Z,8.70
2018-12-08T07:06:40.938Z,9.00
2018-12-08T07:09:08.831Z,9.10
2018-12-08T07:11:36.858Z,9.10
2018-12-08T07:14:04.971Z,9.00
2018-12-08T07:16:33.063Z,9.10
2018-12-08T07:19:01.143Z,9.10
2018-12-08T07:21:29.046Z,9.00
2018-12-08T07:23:56.933Z,8.20
2018-12-08T07:26:24.880Z,8.80
2018-12-08T07:28:52.742Z,8.70
2018-12-08T07:31:20.745Z,8.70
2018-12-08T07:33:48.729Z,8.90
2018-12-08T07:36:16.676Z,8.90
2018-12-08T07:38:45.507Z,9.10
2018-12-08T07:41:13.353Z,9.30
2018-12-08T07:43:41.246Z,9.30
2018-12-08T07:46:09.276Z,9.20
2018-12-08T07:48:37.228Z,9.20
2018-12-08T07:51:05.373Z,9.20
2018-12-08T07:53:33.374Z,9.30
2018-12-08T07:56:01.276Z,9.30
2018-12-08T07:58:29.181Z,9.30
2018-12-08T08:00:57.033Z,9.20
2018-12-08T08:03:24.933Z,9.20
2018-12-08T08:05:52.795Z,9.00
2018-12-08T08:08:20.724Z,9.00
2018-12-08T08:10:48.622Z,9.00
2018-12-08T08:13:16.515Z,9.00
2018-12-08T08:15:44.450Z,9.10
2018-12-08T08:18:12.252Z,9.00
2018-12-08T08:20:40.467Z,9.10
2018-12-08T08:23:08.427Z,9.30
2018-12-08T08:25:36.276Z,9.30
2018-12-08T08:28:04.229Z,9.40
2018-12-08T08:30:32.252Z,9.30
2018-12-08T08:33:00.163Z,9.40
2018-12-08T08:35:28.123Z,9.50
2018-12-08T08:37:56.081Z,9.50
2018-12-08T08:40:24.025Z,9.60
2018-12-08T08:42:51.972Z,9.70
2018-12-08T08:45:19.969Z,9.80
2018-12-08T08:47:47.839Z,10.00
2018-12-08T08:50:15.993Z,9.90
2018-12-08T08:52:43.904Z,10.20
2018-12-08T08:55:11.901Z,10.20
2018-12-08T08:57:39.904Z,10.20
2018-12-08T09:00:09.495Z,10.00
2018-12-08T09:02:37.591Z,10.00
2018-12-08T09:05:06.513Z,9.90
2018-12-08T09:07:34.481Z,9.80
2018-12-08T09:10:02.909Z,9.70
2018-12-08T09:12:30.916Z,9.70
2018-12-08T09:14:58.862Z,9.90
2018-12-08T09:17:26.740Z,10.10
2018-12-08T09:19:54.646Z,10.10
2018-12-08T09:22:22.674Z,10.00
2018-12-08T09:24:50.523Z,9.90
2018-12-08T09:27:18.424Z,10.00
2018-12-08T09:29:46.293Z,10.20
2018-12-08T09:32:14.360Z,10.00
2018-12-08T09:34:42.320Z,10.00
2018-12-08T09:37:10.241Z,10.00
2018-12-08T09:39:38.247Z,10.00
2018-12-08T09:42:06.512Z,10.00
2018-12-08T09:44:34.667Z,10.20
2018-12-08T09:47:02.768Z,10.50
2018-12-08T09:49:30.686Z,10.40
2018-12-08T09:51:58.624Z,10.40
2018-12-08T09:54:26.631Z,10.30
2018-12-08T09:56:54.650Z,10.60
2018-12-08T09:59:23.800Z,10.60
2018-12-08T10:01:51.744Z,10.70
2018-12-08T10:04:19.704Z,10.80
2018-12-08T10:06:47.686Z,10.80
2018-12-08T10:09:15.661Z,10.80
2018-12-08T10:11:43.847Z,10.70
2018-12-08T10:14:11.987Z,10.90
2018-12-08T10:16:40.270Z,10.90
2018-12-08T10:19:08.256Z,11.00
2018-12-08T10:21:36.284Z,11.20
2018-12-08T10:24:04.354Z,11.20
2018-12-08T10:26:32.393Z,11.10
2018-12-08T10:29:00.470Z,11.30
2018-12-08T10:31:28.853Z,11.40
2018-12-08T10:33:57.760Z,11.00
2018-12-08T10:36:25.716Z,11.00
2018-12-08T10:38:53.838Z,11.20
2018-12-08T10:41:21.919Z,11.00
2018-12-08T10:43:50.028Z,11.00
2018-12-08T10:46:18.048Z,11.00
2018-12-08T10:48:46.077Z,10.90
2018-12-08T10:51:14.154Z,11.10
2018-12-08T10:53:42.168Z,10.80
2018-12-08T10:56:10.453Z,10.90
2018-12-08T10:58:38.507Z,10.20
2018-12-08T11:01:11.068Z,11.20
2018-12-08T11:03:48.996Z,11.20
2018-12-08T11:06:17.231Z,11.20
2018-12-08T11:08:45.285Z,11.20
2018-12-08T11:11:13.447Z,11.20
2018-12-08T11:13:41.594Z,11.30
2018-12-08T11:16:11.192Z,11.10
2018-12-08T11:18:39.550Z,11.20
2018-12-08T11:21:09.129Z,11.20
2018-12-08T11:23:38.400Z,11.20
2018-12-08T11:26:06.877Z,11.00
2018-12-08T11:28:35.352Z,10.90
2018-12-08T11:31:03.704Z,10.80
2018-12-08T11:33:31.706Z,10.90
2018-12-08T11:35:59.854Z,11.00
2018-12-08T11:38:27.904Z,11.10
2018-12-08T11:40:56.152Z,11.00
2018-12-08T11:43:24.558Z,10.50
2018-12-08T11:45:52.901Z,10.90
2018-12-08T11:48:21.255Z,10.60
2018-12-08T11:50:50.497Z,10.90
2018-12-08T11:53:18.916Z,11.00
2018-12-08T11:55:49.064Z,10.90
2018-12-08T11:58:17.584Z,10.90
2018-12-08T12:00:46.937Z,10.90
2018-12-08T12:03:15.148Z,11.00
2018-12-08T12:05:44.524Z,10.00
2018-12-08T12:08:13.614Z,11.20
2018-12-08T12:10:41.936Z,10.90
2018-12-08T12:13:10.249Z,11.00
2018-12-08T12:15:38.493Z,11.00
2018-12-08T12:18:07.025Z,11.10
2018-12-08T12:20:35.632Z,10.90
2018-12-08T12:23:03.987Z,11.10
2018-12-08T12:25:32.379Z,11.20
2018-12-08T12:28:00.783Z,11.20
2018-12-08T12:30:29.006Z,11.10
2018-12-08T12:32:57.009Z,11.30
2018-12-08T12:35:25.114Z,11.10
2018-12-08T12:37:54.553Z,11.00
2018-12-08T12:40:22.615Z,11.10
2018-12-08T12:42:50.773Z,11.10
2018-12-08T12:45:21.011Z,10.80
2018-12-08T12:47:49.227Z,10.80
2018-12-08T12:50:17.446Z,11.10
2018-12-08T12:52:45.407Z,11.10
2018-12-08T12:55:13.363Z,11.20
2018-12-08T12:57:41.363Z,11.10
2018-12-08T13:00:12.867Z,11.00
2018-12-08T13:02:40.937Z,11.10
2018-12-08T13:05:08.900Z,11.00
2018-12-08T13:07:37.047Z,11.00
2018-12-08T13:10:05.813Z,11.00
2018-12-08T13:12:34.452Z,11.00
2018-12-08T13:15:02.522Z,11.00
2018-12-08T13:17:30.556Z,10.80
2018-12-08T13:19:58.560Z,10.90
2018-12-08T13:22:26.507Z,10.90
2018-12-08T13:25:04.792Z,10.80
2018-12-08T13:27:32.777Z,10.80
2018-12-08T13:30:00.743Z,10.60
2018-12-08T13:32:29.062Z,10.70
2018-12-08T13:34:57.146Z,10.80
2018-12-08T13:37:25.135Z,10.80
2018-12-08T13:39:53.023Z,10.80
2018-12-08T13:42:21.172Z,10.60
2018-12-08T13:44:59.043Z,10.70
2018-12-08T13:47:27.136Z,10.40
2018-12-08T13:49:55.554Z,10.50
2018-12-08T13:52:23.920Z,10.40
2018-12-08T13:54:51.953Z,10.40
2018-12-08T13:57:20.041Z,10.80
2018-12-08T13:59:57.143Z,10.90
2018-12-08T14:02:25.484Z,10.80
2018-12-08T14:04:53.755Z,10.70
2018-12-08T14:07:21.968Z,10.70
2018-12-08T14:09:50.684Z,10.80
2018-12-08T14:12:18.768Z,10.70
2018-12-08T14:14:46.701Z,10.50
2018-12-08T14:17:14.763Z,10.50
2018-12-08T14:19:43.034Z,10.50
2018-12-08T14:22:12.886Z,10.50
2018-12-08T14:24:41.169Z,10.70
2018-12-08T14:27:09.415Z,10.60
2018-12-08T14:29:37.834Z,10.40
2018-12-08T14:32:06.088Z,10.50
2018-12-08T14:34:34.623Z,10.60
2018-12-08T14:37:03.033Z,10.90
2018-12-08T14:39:31.105Z,10.50
2018-12-08T14:41:59.011Z,10.20
2018-12-08T14:44:27.085Z,10.10
2018-12-08T14:46:55.317Z,10.20
2018-12-08T14:49:24.520Z,10.20
2018-12-08T14:51:52.782Z,10.30
2018-12-08T14:54:20.888Z,10.40
2018-12-08T14:56:48.966Z,10.30
2018-12-08T14:59:17.150Z,10.40
2018-12-08T15:04:19.691Z,10.20
2018-12-08T15:06:47.558Z,10.10
2018-12-08T15:09:15.376Z,10.20
2018-12-08T15:11:43.255Z,10.00
2018-12-08T15:14:11.435Z,9.80
2018-12-08T15:16:39.408Z,9.90
2018-12-08T15:19:07.287Z,10.20
2018-12-08T15:21:35.220Z,10.20
2018-12-08T15:24:03.040Z,10.10
2018-12-08T15:26:30.927Z,10.20
2018-12-08T15:28:58.740Z,10.00
2018-12-08T15:31:26.585Z,9.90
2018-12-08T15:33:54.876Z,10.10
2018-12-08T15:36:22.754Z,10.00
2018-12-08T15:38:50.584Z,10.00
2018-12-08T15:41:18.545Z,9.90
2018-12-08T15:43:46.334Z,10.00
2018-12-08T15:46:14.209Z,10.00
2018-12-08T15:48:42.074Z,10.20
2018-12-08T15:51:09.905Z,10.10
2018-12-08T15:53:37.908Z,9.80
2018-12-08T15:56:07.958Z,9.70
2018-12-08T15:58:35.920Z,9.80
2018-12-08T16:01:03.965Z,9.70
2018-12-08T16:03:31.986Z,9.70
2018-12-08T16:05:59.823Z,9.70
2018-12-08T16:08:27.652Z,9.70
2018-12-08T16:10:55.535Z,9.80
2018-12-08T16:13:23.344Z,9.70
2018-12-08T16:15:51.167Z,9.70
2018-12-08T16:18:19.152Z,9.70
2018-12-08T16:20:47.035Z,9.80
2018-12-08T16:23:14.819Z,9.60
2018-12-08T16:25:42.718Z,9.60
2018-12-08T16:28:10.549Z,9.50
2018-12-08T16:30:38.460Z,9.50
2018-12-08T16:33:06.380Z,9.60
2018-12-08T16:35:34.174Z,9.90
2018-12-08T16:38:01.995Z,10.00
2018-12-08T16:40:29.770Z,10.10
2018-12-08T16:42:57.560Z,9.90
2018-12-08T16:45:25.391Z,9.80
2018-12-08T16:47:53.179Z,9.90
2018-12-08T16:50:21.020Z,10.00
2018-12-08T16:52:48.860Z,9.90
2018-12-08T16:55:16.764Z,10.00
2018-12-08T16:57:44.630Z,9.80
2018-12-08T17:00:12.789Z,9.90
2018-12-08T17:02:40.711Z,9.60
2018-12-08T17:05:08.687Z,9.40
2018-12-08T17:07:36.842Z,9.50
2018-12-08T17:10:07.566Z,9.50
2018-12-08T17:12:35.551Z,9.30
2018-12-08T17:15:03.887Z,9.20
2018-12-08T17:17:32.077Z,9.20
2018-12-08T17:20:00.199Z,9.30
2018-12-08T17:22:28.414Z,9.50
2018-12-08T17:24:56.416Z,9.70
2018-12-08T17:27:24.344Z,9.50
2018-12-08T17:29:52.422Z,9.60
2018-12-08T17:32:20.364Z,9.70
2018-12-08T17:34:48.349Z,9.80
2018-12-08T17:37:16.316Z,9.40
2018-12-08T17:39:44.453Z,9.50
2018-12-08T17:42:12.842Z,9.50
2018-12-08T17:44:41.146Z,9.50
2018-12-08T17:47:09.214Z,9.40
2018-12-08T17:49:37.392Z,9.40
2018-12-08T17:52:05.495Z,9.30
2018-12-08T17:54:33.425Z,9.60
2018-12-08T17:57:01.385Z,9.40
2018-12-08T17:59:29.280Z,9.60
2018-12-08T18:01:57.398Z,9.90
2018-12-08T18:04:25.235Z,10.20
2018-12-08T18:06:53.354Z,10.00
2018-12-08T18:09:21.303Z,9.90
2018-12-08T18:11:49.378Z,9.90
2018-12-08T18:14:17.974Z,9.90
2018-12-08T18:16:45.957Z,9.90
2018-12-08T18:19:14.008Z,9.80
2018-12-08T18:21:42.167Z,9.80
2018-12-08T18:24:10.172Z,9.70
2018-12-08T18:26:39.008Z,9.60
2018-12-08T18:29:06.978Z,9.60
2018-12-08T18:31:34.947Z,9.70
2018-12-08T18:34:03.776Z,9.50
2018-12-08T18:36:32.491Z,9.40
2018-12-08T18:39:00.943Z,9.60
2018-12-08T18:41:28.910Z,10.10
2018-12-08T18:43:58.108Z,10.30
2018-12-08T18:46:26.426Z,10.30
2018-12-08T18:48:54.458Z,10.40
2018-12-08T18:51:22.537Z,10.40
2018-12-08T18:53:50.836Z,10.40
2018-12-08T18:56:18.771Z,10.30
2018-12-08T18:58:46.718Z,10.30
2018-12-08T19:01:14.785Z,10.20
2018-12-08T19:03:43.077Z,10.20
2018-12-08T19:06:11.092Z,10.10
2018-12-08T19:08:39.345Z,10.20
2018-12-08T19:11:07.448Z,10.20
2018-12-08T19:13:35.602Z,10.20
2018-12-08T19:16:03.740Z,10.10
2018-12-08T19:18:31.820Z,10.30
2018-12-08T19:20:59.791Z,10.30
2018-12-08T19:23:27.728Z,10.40
2018-12-08T19:25:55.765Z,10.20
2018-12-08T19:28:23.765Z,10.40
2018-12-08T19:30:51.862Z,10.30
2018-12-08T19:33:19.907Z,10.20
2018-12-08T19:35:47.896Z,9.60
2018-12-08T19:38:15.923Z,10.10
2018-12-08T19:40:43.901Z,10.20
2018-12-08T19:43:11.850Z,10.10
2018-12-08T19:45:41.047Z,10.20
2018-12-08T19:48:09.276Z,10.30
2018-12-08T19:50:37.400Z,10.10
2018-12-08T19:53:05.320Z,10.20
2018-12-08T19:55:33.910Z,10.10
2018-12-08T19:58:01.852Z,10.00
2018-12-08T20:00:29.775Z,9.90
2018-12-08T20:02:57.709Z,9.80
2018-12-08T20:05:25.643Z,9.90
2018-12-08T20:07:53.640Z,9.90
2018-12-08T20:10:21.665Z,10.00
2018-12-08T20:12:49.636Z,9.90
2018-12-08T20:15:17.599Z,9.90
2018-12-08T20:17:45.584Z,9.80
2018-12-08T20:20:13.480Z,9.80
2018-12-08T20:22:41.532Z,9.90
2018-12-08T20:25:09.858Z,9.90
2018-12-08T20:27:38.355Z,9.70
2018-12-08T20:30:07.586Z,9.70
2018-12-08T20:32:35.595Z,9.70
2018-12-08T20:35:03.949Z,9.70
2018-12-08T20:37:31.932Z,10.00
2018-12-08T20:39:59.892Z,9.70
2018-12-08T20:42:27.860Z,9.60
2018-12-08T20:44:56.356Z,9.70
2018-12-08T20:47:24.647Z,9.80
2018-12-08T20:49:52.699Z,9.80
2018-12-08T20:52:21.621Z,9.90
2018-12-08T20:54:49.646Z,9.70
2018-12-08T20:57:17.719Z,9.50
2018-12-08T20:59:45.668Z,9.60
2018-12-08T21:02:13.719Z,9.60
2018-12-08T21:04:41.849Z,9.70
2018-12-08T21:07:09.891Z,9.70
2018-12-08T21:09:37.920Z,9.70
2018-12-08T21:12:06.754Z,9.50
2018-12-08T21:14:34.877Z,9.80
2018-12-08T21:17:02.794Z,9.90
2018-12-08T21:19:30.740Z,9.80
2018-12-08T21:21:58.683Z,9.90
2018-12-08T21:24:26.608Z,10.00
2018-12-08T21:26:54.719Z,9.70
2018-12-08T21:29:22.695Z,9.50
2018-12-08T21:31:51.750Z,9.40
2018-12-08T21:34:19.812Z,9.50
2018-12-08T21:36:47.831Z,9.50
2018-12-08T21:39:15.872Z,9.40
2018-12-08T21:41:43.932Z,9.40
2018-12-08T21:44:12.164Z,9.40
2018-12-08T21:46:40.491Z,9.20
2018-12-08T21:49:08.544Z,9.40
2018-12-08T21:51:36.471Z,9.40
2018-12-08T21:54:04.468Z,9.50
2018-12-08T21:56:32.505Z,9.50
2018-12-08T21:59:00.408Z,9.30
2018-12-08T22:01:28.434Z,9.40
2018-12-08T22:03:56.509Z,9.40
2018-12-08T22:06:24.529Z,9.30
2018-12-08T22:08:52.510Z,9.20
2018-12-08T22:11:20.512Z,9.20
2018-12-08T22:13:48.409Z,9.20
2018-12-08T22:16:16.357Z,9.20
2018-12-08T22:18:44.334Z,9.10
2018-12-08T22:21:12.348Z,8.40
2018-12-08T22:23:40.726Z,9.10
2018-12-08T22:26:08.849Z,9.20
2018-12-08T22:28:36.928Z,9.10
2018-12-08T22:31:04.846Z,8.30
2018-12-08T22:33:32.772Z,9.00
2018-12-08T22:36:00.937Z,9.30
2018-12-08T22:38:29.211Z,9.30
2018-12-08T22:40:57.242Z,9.30
2018-12-08T22:43:25.184Z,9.20
2018-12-08T22:45:53.079Z,9.20
2018-12-08T22:48:21.067Z,9.20
2018-12-08T22:50:49.195Z,9.10
2018-12-08T22:53:17.321Z,8.90
2018-12-08T22:55:51.753Z,8.80
2018-12-08T22:58:19.789Z,8.60
2018-12-08T23:00:49.121Z,8.70
2018-12-08T23:03:17.138Z,8.70
2018-12-08T23:05:45.094Z,7.80
2018-12-08T23:08:13.195Z,8.50
2018-12-08T23:10:41.184Z,8.60
2018-12-08T23:13:09.279Z,8.70
2018-12-08T23:15:37.366Z,8.90
2018-12-08T23:18:08.585Z,8.90
2018-12-08T23:20:36.999Z,8.90
2018-12-08T23:23:12.198Z,8.90
2018-12-08T23:25:40.430Z,9.90
2018-12-08T23:28:09.103Z,8.90
2018-12-08T23:30:37.513Z,8.70
2018-12-08T23:33:05.499Z,8.40
2018-12-08T23:35:33.452Z,8.60
2018-12-08T23:38:01.534Z,8.90
2018-12-08T23:40:29.635Z,9.00
2018-12-08T23:42:57.686Z,9.10
2018-12-08T23:45:25.970Z,9.10
2018-12-08T23:47:54.141Z,9.10
2018-12-08T23:50:22.219Z,9.00
2018-12-08T23:52:50.287Z,9.00
2018-12-08T23:55:18.297Z,9.00
2018-12-08T23:57:47.734Z,9.00
